FranceFixed distance
Luchon Aneto Trail - L'Ultra Lat
5–6 Jul2025
Distance
85km
Finishers
247220 men27 women
Winning time
9:42:00h
Median pace
5.48km/h
Pace distribution
247 finishers · 4.35–8.76 km/h · mean 5.62
Every finisher ran the same 85 km course, so these paces are directly comparable.
Histogram of finisher pace. 247 finishers ranged from 4.35 to 8.76 kilometres per hour, with a mean of 5.62 and a median of 5.48. The busiest band is 5.0 to 5.5 kilometres per hour, with 68 finishers.
Results
Ranks 201–247 of 247
| Rank | Runner | Time | Pace | Cat. | Placing |
|---|---|---|---|---|---|
| 201 | Spuc Lasterka | 17:27:58h | 4.87 | W50 | 21st F · 3rd W50 |
| 202 | *Nieuil-L'Espoir | 17:29:08h | 4.86 | M35 | 181st M · 33rd M35 |
| 203 | Spuc Lasterka | 17:34:37h | 4.84 | — | 22nd F |
| 203 | Spuc Lasteka | 17:34:37h | 4.84 | M35 | 182nd M · 34th M35 |
| 205 | L'Élan Girouardais | 17:36:24h | 4.83 | M35 | 183rd M · 35th M35 |
| 206 | *St Laurent De La Pree | 17:38:05h | 4.82 | M40 | 184th M · 43rd M40 |
| 207 | les Run'ARS | 17:38:55h | 4.82 | M40 | 185th M · 44th M40 |
| 208 | *La Rochelle | 17:40:11h | 4.81 | — | 186th M |
| 209 | *Vazerac | 17:42:12h | 4.80 | — | 187th M |
| 210 | FC Montamisé | 17:48:42h | 4.77 | M35 | 188th M · 36th M35 |
| 211 | B.T.R. | 17:53:24h | 4.75 | M45 | 189th M · 25th M45 |
| 212 | CA Villenave-D'Ornon | 17:53:31h | 4.75 | M45 | 190th M · 26th M45 |
| 213 | Tarahumaras | 17:54:03h | 4.75 | M60 | 191st M · 4th M60 |
| 214 | *Hagetmau | 17:55:20h | 4.74 | — | 192nd M |
| 215 | *La Baule-Escoublac | 17:55:32h | 4.74 | M40 | 193rd M · 45th M40 |
| 216 | *Antichan De Frontignes | 17:56:25h | 4.74 | M35 | 194th M · 37th M35 |
| 217 | Portet Athletic Club | 17:56:53h | 4.74 | M50 | 195th M · 14th M50 |
| 218 | Safran Fougères | 17:56:54h | 4.74 | M50 | 196th M · 15th M50 |
| 219 | *Melles | 17:56:57h | 4.74 | M50 | 197th M · 16th M50 |
| 220 | *Auzielle | 18:02:34h | 4.71 | M65 | 198th M · 2nd M65 |
| 221 | *Monein | 18:07:17h | 4.69 | M40 | 199th M · 46th M40 |
| 222 | *Lahourcade | 18:07:18h | 4.69 | M40 | 200th M · 47th M40 |
| 223 | Pessac Athletic Club | 18:11:29h | 4.67 | M45 | 201st M · 27th M45 |
| 223 | *Toulouse | 18:11:29h | 4.67 | M50 | 201st M · 17th M50 |
| 223 | Athle 632 | 18:11:29h | 4.67 | M45 | 201st M · 27th M45 |
| 226 | *Toulouse | 18:11:30h | 4.67 | M50 | 204th M · 18th M50 |
| 227 | Carcassonne Trail Club | 18:11:33h | 4.67 | M40 | 205th M · 48th M40 |
| 228 | *Genouillé | 18:12:45h | 4.67 | M40 | 206th M · 49th M40 |
| 229 | Promeneurs EN Difficulté | 18:18:13h | 4.64 | W23 | 23rd F · 8th W23 |
| 230 | Esprit Trail Landais | 18:19:34h | 4.64 | M40 | 207th M · 50th M40 |
| 231 | T3R | 18:21:59h | 4.63 | W35 | 24th F · 2nd W35 |
| 232 | Baladins de Jardres | 18:23:15h | 4.62 | W45 | 25th F · 5th W45 |
| 232 | Baladins de Jardres | 18:23:15h | 4.62 | M55 | 208th M · 7th M55 |
| 234 | Anais Runing Club | 18:25:11h | 4.62 | W55 | 26th F · 3rd W55 |
| 235 | Dompierre Course Aventure | 18:25:35h | 4.61 | M50 | 209th M · 19th M50 |
| 236 | Tours Raid Nature | 18:25:44h | 4.61 | M50 | 210th M · 20th M50 |
| 237 | *Serres Castet | 18:28:25h | 4.60 | M55 | 211th M · 8th M55 |
| 238 | *Niort | 18:34:25h | 4.58 | M50 | 212th M · 21st M50 |
| 239 | *Louvie Juzon | 18:38:03h | 4.56 | M40 | 213th M · 51st M40 |
| 240 | Innov’ATM | 18:40:23h | 4.55 | M50 | 214th M · 22nd M50 |
| 241 | *Montlaur | 18:45:03h | 4.53 | — | 215th M |
| 242 | Montardon D’Achille | 18:50:03h | 4.51 | W50 | 27th F · 4th W50 |
| 243 | *Saint Laurent De La Prée | 19:00:08h | 4.47 | M35 | 216th M · 38th M35 |
| 244 | *Mortagne | 19:09:22h | 4.44 | M23 | 217th M · 47th M23 |
| 245 | Baladins de Jardres | 19:18:30h | 4.40 | M23 | 218th M · 48th M23 |
| 245 | *Jardres | 19:18:30h | 4.40 | M45 | 218th M · 29th M45 |
| 247 | Raid'Apte | 19:31:20h | 4.35 | M55 | 220th M · 9th M55 |
- 201Spuc Lasterka21st F · 3rd W50Time17:27:58hPace4.87Cat.W50
- 202*Nieuil-L'Espoir181st M · 33rd M35Time17:29:08hPace4.86Cat.M35
- 203Spuc Lasterka22nd FTime17:34:37hPace4.84
- 203Spuc Lasteka182nd M · 34th M35Time17:34:37hPace4.84Cat.M35
- 205L'Élan Girouardais183rd M · 35th M35Time17:36:24hPace4.83Cat.M35
- 206*St Laurent De La Pree184th M · 43rd M40Time17:38:05hPace4.82Cat.M40
- 207les Run'ARS185th M · 44th M40Time17:38:55hPace4.82Cat.M40
- 208*La Rochelle186th MTime17:40:11hPace4.81
- 209*Vazerac187th MTime17:42:12hPace4.80
- 210FC Montamisé188th M · 36th M35Time17:48:42hPace4.77Cat.M35
- 211B.T.R.189th M · 25th M45Time17:53:24hPace4.75Cat.M45
- 212CA Villenave-D'Ornon190th M · 26th M45Time17:53:31hPace4.75Cat.M45
- 213Tarahumaras191st M · 4th M60Time17:54:03hPace4.75Cat.M60
- 214*Hagetmau192nd MTime17:55:20hPace4.74
- 215*La Baule-Escoublac193rd M · 45th M40Time17:55:32hPace4.74Cat.M40
- 216*Antichan De Frontignes194th M · 37th M35Time17:56:25hPace4.74Cat.M35
- 217Portet Athletic Club195th M · 14th M50Time17:56:53hPace4.74Cat.M50
- 218Safran Fougères196th M · 15th M50Time17:56:54hPace4.74Cat.M50
- 219*Melles197th M · 16th M50Time17:56:57hPace4.74Cat.M50
- 220*Auzielle198th M · 2nd M65Time18:02:34hPace4.71Cat.M65
- 221*Monein199th M · 46th M40Time18:07:17hPace4.69Cat.M40
- 222*Lahourcade200th M · 47th M40Time18:07:18hPace4.69Cat.M40
- 223Pessac Athletic Club201st M · 27th M45Time18:11:29hPace4.67Cat.M45
- 223*Toulouse201st M · 17th M50Time18:11:29hPace4.67Cat.M50
- 223Athle 632201st M · 27th M45Time18:11:29hPace4.67Cat.M45
- 226*Toulouse204th M · 18th M50Time18:11:30hPace4.67Cat.M50
- 227Carcassonne Trail Club205th M · 48th M40Time18:11:33hPace4.67Cat.M40
- 228*Genouillé206th M · 49th M40Time18:12:45hPace4.67Cat.M40
- 229Promeneurs EN Difficulté23rd F · 8th W23Time18:18:13hPace4.64Cat.W23
- 230Esprit Trail Landais207th M · 50th M40Time18:19:34hPace4.64Cat.M40
- 231T3R24th F · 2nd W35Time18:21:59hPace4.63Cat.W35
- 232Baladins de Jardres25th F · 5th W45Time18:23:15hPace4.62Cat.W45
- 232Baladins de Jardres208th M · 7th M55Time18:23:15hPace4.62Cat.M55
- 234Anais Runing Club26th F · 3rd W55Time18:25:11hPace4.62Cat.W55
- 235Dompierre Course Aventure209th M · 19th M50Time18:25:35hPace4.61Cat.M50
- 236Tours Raid Nature210th M · 20th M50Time18:25:44hPace4.61Cat.M50
- 237*Serres Castet211th M · 8th M55Time18:28:25hPace4.60Cat.M55
- 238*Niort212th M · 21st M50Time18:34:25hPace4.58Cat.M50
- 239*Louvie Juzon213th M · 51st M40Time18:38:03hPace4.56Cat.M40
- 240Innov’ATM214th M · 22nd M50Time18:40:23hPace4.55Cat.M50
- 241*Montlaur215th MTime18:45:03hPace4.53
- 242Montardon D’Achille27th F · 4th W50Time18:50:03hPace4.51Cat.W50
- 243*Saint Laurent De La Prée216th M · 38th M35Time19:00:08hPace4.47Cat.M35
- 244*Mortagne217th M · 47th M23Time19:09:22hPace4.44Cat.M23
- 245Baladins de Jardres218th M · 48th M23Time19:18:30hPace4.40Cat.M23
- 245*Jardres218th M · 29th M45Time19:18:30hPace4.40Cat.M45
- 247Raid'Apte220th M · 9th M55Time19:31:20hPace4.35Cat.M55
Showing ranks 201–247 of 247